createdAt,value
2019-03-09T00:01:43.336Z,3.10
2019-03-09T00:04:09.874Z,3.17
2019-03-09T00:06:36.364Z,3.20
2019-03-09T00:09:04.244Z,3.47
2019-03-09T00:11:30.693Z,3.57
2019-03-09T00:13:57.082Z,2.97
2019-03-09T00:16:23.566Z,2.83
2019-03-09T00:18:50.019Z,2.93
2019-03-09T00:21:16.491Z,2.87
2019-03-09T00:23:45.003Z,3.03
2019-03-09T00:26:13.251Z,2.70
2019-03-09T00:28:41.575Z,2.80
2019-03-09T00:31:10.851Z,2.80
2019-03-09T00:33:37.513Z,3.10
2019-03-09T00:36:03.959Z,3.60
2019-03-09T00:38:30.308Z,3.63
2019-03-09T00:40:56.878Z,2.87
2019-03-09T00:43:23.420Z,3.13
2019-03-09T00:45:49.946Z,3.17
2019-03-09T00:48:16.712Z,3.03
2019-03-09T00:50:43.494Z,2.77
2019-03-09T00:53:09.935Z,3.50
2019-03-09T00:55:36.308Z,3.20
2019-03-09T00:58:03.011Z,2.90
2019-03-09T01:00:29.536Z,3.00
2019-03-09T01:02:56.071Z,3.40
2019-03-09T01:05:22.545Z,3.60
2019-03-09T01:07:48.934Z,3.27
2019-03-09T01:10:15.700Z,3.90
2019-03-09T01:12:42.256Z,3.47
2019-03-09T01:15:08.727Z,3.27
2019-03-09T01:17:35.130Z,3.20
2019-03-09T01:20:01.931Z,2.80
2019-03-09T01:22:28.387Z,2.97
2019-03-09T01:24:54.848Z,3.63
2019-03-09T01:27:21.219Z,2.87
2019-03-09T01:29:47.844Z,3.53
2019-03-09T01:32:14.315Z,3.00
2019-03-09T01:34:40.677Z,3.20
2019-03-09T01:37:07.037Z,3.30
2019-03-09T01:39:33.387Z,3.70
2019-03-09T01:41:59.747Z,3.27
2019-03-09T01:44:26.100Z,3.03
2019-03-09T01:46:52.667Z,3.10
2019-03-09T01:49:19.062Z,3.30
2019-03-09T01:51:45.626Z,3.20
2019-03-09T01:54:11.993Z,3.43
2019-03-09T01:56:38.368Z,3.40
2019-03-09T01:59:04.873Z,3.13
2019-03-09T02:01:31.365Z,3.00
2019-03-09T02:03:57.729Z,3.00
2019-03-09T02:06:24.299Z,3.00
2019-03-09T02:08:50.859Z,2.90
2019-03-09T02:11:17.380Z,3.13
2019-03-09T02:13:43.831Z,3.00
2019-03-09T02:16:10.390Z,3.07
2019-03-09T02:18:36.879Z,3.50
2019-03-09T02:21:03.472Z,3.13
2019-03-09T02:23:29.843Z,3.40
2019-03-09T02:25:56.401Z,3.40
2019-03-09T02:28:22.882Z,3.00
2019-03-09T02:30:49.542Z,3.43
2019-03-09T02:33:16.011Z,2.93
2019-03-09T02:35:42.459Z,2.80
2019-03-09T02:38:11.158Z,3.30
2019-03-09T02:40:37.687Z,3.20
2019-03-09T02:43:04.160Z,3.47
2019-03-09T02:45:31.914Z,3.33
2019-03-09T02:48:02.153Z,2.90
2019-03-09T02:50:28.622Z,3.23
2019-03-09T02:52:55.088Z,3.00
2019-03-09T02:55:21.450Z,2.83
2019-03-09T02:57:47.912Z,2.77
2019-03-09T03:00:15.316Z,2.83
2019-03-09T03:02:43.691Z,2.43
2019-03-09T03:05:10.242Z,2.60
2019-03-09T03:07:36.607Z,2.83
2019-03-09T03:10:04.471Z,2.70
2019-03-09T03:12:30.837Z,2.57
2019-03-09T03:14:57.398Z,2.67
2019-03-09T03:17:23.858Z,3.00
2019-03-09T03:19:50.517Z,3.03
2019-03-09T03:22:17.080Z,2.50
2019-03-09T03:24:43.558Z,2.73
2019-03-09T03:27:10.007Z,2.50
2019-03-09T03:29:36.560Z,2.37
2019-03-09T03:32:03.113Z,3.40
2019-03-09T03:34:29.676Z,2.37
2019-03-09T03:36:56.121Z,2.17
2019-03-09T03:39:22.484Z,2.07
2019-03-09T03:41:48.940Z,2.77
2019-03-09T03:44:15.521Z,2.40
2019-03-09T03:46:41.988Z,2.23
2019-03-09T03:49:08.342Z,2.03
2019-03-09T03:51:34.822Z,2.50
2019-03-09T03:54:01.193Z,2.30
2019-03-09T03:56:27.660Z,2.30
2019-03-09T03:58:54.108Z,2.23
2019-03-09T04:01:20.513Z,2.47
2019-03-09T04:03:47.070Z,2.50
2019-03-09T04:06:13.552Z,2.50
2019-03-09T04:08:41.943Z,2.43
2019-03-09T04:11:08.515Z,2.27
2019-03-09T04:13:35.019Z,2.17
2019-03-09T04:16:01.503Z,2.40
2019-03-09T04:18:28.073Z,2.17
2019-03-09T04:20:54.543Z,2.10
2019-03-09T04:23:20.912Z,2.13
2019-03-09T04:25:47.383Z,2.00
2019-03-09T04:28:13.846Z,2.30
2019-03-09T04:30:40.308Z,2.40
2019-03-09T04:33:06.657Z,2.40
2019-03-09T04:35:33.235Z,2.47
2019-03-09T04:37:59.786Z,2.50
2019-03-09T04:40:26.198Z,2.60
2019-03-09T04:42:52.538Z,1.90
2019-03-09T04:45:19.098Z,2.50
2019-03-09T04:47:45.567Z,2.00
2019-03-09T04:50:12.528Z,2.50
2019-03-09T04:52:38.918Z,1.80
2019-03-09T04:55:06.001Z,2.30
2019-03-09T04:57:32.467Z,1.90
2019-03-09T04:59:58.860Z,1.97
2019-03-09T05:02:25.428Z,1.67
2019-03-09T05:04:51.771Z,1.73
2019-03-09T05:07:20.047Z,2.20
2019-03-09T05:09:51.414Z,1.97
2019-03-09T05:12:17.783Z,2.40
2019-03-09T05:14:44.235Z,1.60
2019-03-09T05:17:10.708Z,1.73
2019-03-09T05:19:37.255Z,1.67
2019-03-09T05:22:03.635Z,2.07
2019-03-09T05:24:29.987Z,2.40
2019-03-09T05:26:56.388Z,1.80
2019-03-09T05:29:22.846Z,1.97
2019-03-09T05:31:49.284Z,1.83
2019-03-09T05:34:15.746Z,2.40
2019-03-09T05:36:42.107Z,1.60
2019-03-09T05:39:08.688Z,1.90
2019-03-09T05:41:35.035Z,1.63
2019-03-09T05:44:01.611Z,1.47
2019-03-09T05:46:28.163Z,1.30
2019-03-09T05:48:54.644Z,1.87
2019-03-09T05:51:21.091Z,2.03
2019-03-09T05:53:47.656Z,1.90
2019-03-09T05:56:14.213Z,1.43
2019-03-09T05:58:40.574Z,1.63
2019-03-09T06:01:07.055Z,1.57
2019-03-09T06:03:33.423Z,1.80
2019-03-09T06:05:59.868Z,1.67
2019-03-09T06:08:26.256Z,1.90
2019-03-09T06:10:52.608Z,1.83
2019-03-09T06:13:18.995Z,1.60
2019-03-09T06:15:45.562Z,1.47
2019-03-09T06:18:11.948Z,1.70
2019-03-09T06:20:38.291Z,1.63
2019-03-09T06:23:04.855Z,1.50
2019-03-09T06:25:31.284Z,1.30
2019-03-09T06:27:57.617Z,1.70
2019-03-09T06:30:24.196Z,1.50
2019-03-09T06:32:52.451Z,1.27
2019-03-09T06:35:20.823Z,1.43
2019-03-09T06:37:49.177Z,1.33
2019-03-09T06:40:15.547Z,1.53
2019-03-09T06:42:45.144Z,1.23
2019-03-09T06:45:11.904Z,1.67
2019-03-09T06:47:38.254Z,1.40
2019-03-09T06:50:06.677Z,1.30
2019-03-09T06:52:33.147Z,1.27
2019-03-09T06:54:59.643Z,1.33
2019-03-09T06:57:26.082Z,1.20
2019-03-09T06:59:52.492Z,1.23
2019-03-09T07:02:18.953Z,1.20
2019-03-09T07:04:45.528Z,1.57
2019-03-09T07:07:11.978Z,1.33
2019-03-09T07:09:38.351Z,1.60
2019-03-09T07:12:04.695Z,1.50
2019-03-09T07:14:33.071Z,1.30
2019-03-09T07:16:59.459Z,1.30
2019-03-09T07:19:25.815Z,1.10
2019-03-09T07:21:52.352Z,1.30
2019-03-09T07:24:18.887Z,1.13
2019-03-09T07:26:45.508Z,1.23
2019-03-09T07:29:11.916Z,1.63
2019-03-09T07:31:38.391Z,1.00
2019-03-09T07:34:06.638Z,0.97
2019-03-09T07:36:33.111Z,1.07
2019-03-09T07:38:59.563Z,1.10
2019-03-09T07:41:26.039Z,1.20
2019-03-09T07:43:52.412Z,1.10
2019-03-09T07:46:18.767Z,1.20
2019-03-09T07:48:45.328Z,1.13
2019-03-09T07:51:11.699Z,1.23
2019-03-09T07:53:38.249Z,1.30
2019-03-09T07:56:04.626Z,1.20
2019-03-09T07:58:31.074Z,1.10
2019-03-09T08:00:57.516Z,1.00
2019-03-09T08:03:24.051Z,0.93
2019-03-09T08:05:50.514Z,0.80
2019-03-09T08:08:16.995Z,0.97
2019-03-09T08:10:43.359Z,1.07
2019-03-09T08:13:09.862Z,1.47
2019-03-09T08:15:36.382Z,1.17
2019-03-09T08:18:02.851Z,0.90
2019-03-09T08:20:29.375Z,1.17
2019-03-09T08:22:55.944Z,1.23
2019-03-09T08:25:22.702Z,1.20
2019-03-09T08:27:49.188Z,1.33
2019-03-09T08:30:16.859Z,1.87
2019-03-09T08:32:43.326Z,1.40
2019-03-09T08:35:10.092Z,1.13
2019-03-09T08:37:36.721Z,1.10
2019-03-09T08:40:05.166Z,1.43
2019-03-09T08:42:31.744Z,1.13
2019-03-09T08:44:58.367Z,1.20
2019-03-09T08:47:24.889Z,0.97
2019-03-09T08:49:51.440Z,0.93
2019-03-09T08:52:20.444Z,1.23
2019-03-09T08:54:46.828Z,1.30
2019-03-09T08:57:13.460Z,0.80
2019-03-09T08:59:39.990Z,1.00
2019-03-09T09:02:06.328Z,1.20
2019-03-09T09:04:34.670Z,1.20
2019-03-09T09:07:01.069Z,0.80
2019-03-09T09:09:27.423Z,1.40
2019-03-09T09:11:53.886Z,0.87
2019-03-09T09:14:20.401Z,0.63
2019-03-09T09:16:46.859Z,0.87
2019-03-09T09:19:13.346Z,1.20
2019-03-09T09:21:39.904Z,0.80
2019-03-09T09:24:06.376Z,0.80
2019-03-09T09:26:32.731Z,0.87
2019-03-09T09:28:59.195Z,0.73
2019-03-09T09:31:25.572Z,0.90
2019-03-09T09:33:51.932Z,1.10
2019-03-09T09:36:18.380Z,0.77
2019-03-09T09:38:44.734Z,0.60
2019-03-09T09:41:11.202Z,0.70
2019-03-09T09:43:37.651Z,1.00
2019-03-09T09:46:04.035Z,0.80
2019-03-09T09:48:30.498Z,0.87
2019-03-09T09:50:57.055Z,1.10
2019-03-09T09:53:23.689Z,0.50
2019-03-09T09:55:50.281Z,0.60
2019-03-09T09:58:16.740Z,0.80
2019-03-09T10:00:45.602Z,0.80
2019-03-09T10:03:11.954Z,0.70
2019-03-09T10:05:38.432Z,0.93
2019-03-09T10:08:04.874Z,1.30
2019-03-09T10:10:31.351Z,1.10
2019-03-09T10:12:57.895Z,0.90
2019-03-09T10:15:26.196Z,0.70
2019-03-09T10:17:52.644Z,0.70
2019-03-09T10:20:19.136Z,0.87
2019-03-09T10:22:45.681Z,0.70
2019-03-09T10:25:12.351Z,0.70
2019-03-09T10:27:38.804Z,1.00
2019-03-09T10:30:07.177Z,1.20
2019-03-09T10:32:33.523Z,2.33
2019-03-09T10:34:59.896Z,1.10
2019-03-09T10:37:26.447Z,1.10
2019-03-09T10:39:52.804Z,2.43
2019-03-09T10:42:19.183Z,1.60
2019-03-09T10:44:45.737Z,0.90
2019-03-09T10:47:12.121Z,0.80
2019-03-09T10:49:38.575Z,0.70
2019-03-09T10:52:05.038Z,0.90
2019-03-09T10:54:36.052Z,0.90
2019-03-09T10:56:59.759Z,0.80
2019-03-09T10:59:26.230Z,0.70
2019-03-09T11:01:52.621Z,0.90
2019-03-09T11:04:27.310Z,0.90
2019-03-09T11:06:47.330Z,0.63
2019-03-09T11:09:13.894Z,1.00
2019-03-09T11:11:40.267Z,0.90
2019-03-09T11:14:06.627Z,1.00
2019-03-09T11:16:32.982Z,1.10
2019-03-09T11:18:59.339Z,0.83
2019-03-09T11:21:25.709Z,0.73
2019-03-09T11:23:52.121Z,0.80
2019-03-09T11:26:18.729Z,0.77
2019-03-09T11:28:45.091Z,0.90
2019-03-09T11:31:11.535Z,0.97
2019-03-09T11:33:37.995Z,0.83
2019-03-09T11:36:04.443Z,0.70
2019-03-09T11:38:30.936Z,0.90
2019-03-09T11:41:00.623Z,0.80
2019-03-09T11:43:25.851Z,0.80
2019-03-09T11:45:52.190Z,0.80
2019-03-09T11:48:18.563Z,0.70
2019-03-09T11:50:45.017Z,0.70
2019-03-09T11:53:11.492Z,0.80
2019-03-09T11:55:37.829Z,0.60
2019-03-09T11:58:04.412Z,0.70
2019-03-09T12:00:32.723Z,0.60
2019-03-09T12:02:59.184Z,0.90
2019-03-09T12:05:25.539Z,1.20
2019-03-09T12:07:52.006Z,0.60
2019-03-09T12:10:18.558Z,0.80
2019-03-09T12:12:44.951Z,0.60
2019-03-09T12:15:15.133Z,0.80
2019-03-09T12:17:41.539Z,0.70
2019-03-09T12:20:09.451Z,0.87
2019-03-09T12:22:35.803Z,0.60
2019-03-09T12:25:04.181Z,0.50
2019-03-09T12:27:30.840Z,0.80
2019-03-09T12:29:57.210Z,0.60
2019-03-09T12:32:23.566Z,0.80
2019-03-09T12:34:50.046Z,0.90
2019-03-09T12:37:16.399Z,0.80
2019-03-09T12:39:42.795Z,0.62
2019-03-09T12:42:09.246Z,0.53
2019-03-09T12:44:35.610Z,0.68
2019-03-09T12:47:02.066Z,0.60
2019-03-09T12:49:28.459Z,0.60
2019-03-09T12:51:54.815Z,0.60
2019-03-09T12:54:21.279Z,0.70
2019-03-09T12:56:47.740Z,0.77
2019-03-09T12:59:14.241Z,0.60
2019-03-09T13:01:40.728Z,0.77
2019-03-09T13:04:09.094Z,0.60
2019-03-09T13:06:35.449Z,0.70
2019-03-09T13:09:03.831Z,0.60
2019-03-09T13:11:30.300Z,0.60
2019-03-09T13:13:56.635Z,0.60
2019-03-09T13:16:23.107Z,0.60
2019-03-09T13:18:49.583Z,0.80
2019-03-09T13:21:16.059Z,0.50
2019-03-09T13:23:42.407Z,0.50
2019-03-09T13:26:08.795Z,0.57
2019-03-09T13:28:35.143Z,0.70
2019-03-09T13:31:01.515Z,0.70
2019-03-09T13:33:27.963Z,0.60
2019-03-09T13:35:54.455Z,0.70
2019-03-09T13:38:20.802Z,0.70
2019-03-09T13:40:47.279Z,0.77
2019-03-09T13:43:13.662Z,0.60
2019-03-09T13:45:40.019Z,0.70
2019-03-09T13:48:06.480Z,0.67
2019-03-09T13:50:32.853Z,0.70
2019-03-09T13:52:59.207Z,0.80
2019-03-09T13:55:25.617Z,0.77
2019-03-09T13:57:51.963Z,0.80
2019-03-09T14:00:18.481Z,1.10
2019-03-09T14:02:45.123Z,0.63
2019-03-09T14:05:11.592Z,0.63
2019-03-09T14:07:37.988Z,0.53
2019-03-09T14:10:06.224Z,0.77
2019-03-09T14:12:32.624Z,0.90
2019-03-09T14:14:59.045Z,0.93
2019-03-09T14:17:25.517Z,0.83
2019-03-09T14:19:52.051Z,1.07
2019-03-09T14:22:18.559Z,1.00
2019-03-09T14:24:44.905Z,1.00
2019-03-09T14:27:11.287Z,0.90
2019-03-09T14:29:37.638Z,0.80
2019-03-09T14:32:04.104Z,0.90
2019-03-09T14:34:30.463Z,0.80
2019-03-09T14:36:56.839Z,1.00
2019-03-09T14:39:23.188Z,0.90
2019-03-09T14:41:49.796Z,0.93
2019-03-09T14:44:16.143Z,1.20
2019-03-09T14:46:42.511Z,1.13
2019-03-09T14:49:10.762Z,1.30
2019-03-09T14:51:37.145Z,1.00
2019-03-09T14:54:03.695Z,0.80
2019-03-09T14:56:30.063Z,1.07
2019-03-09T14:58:56.515Z,1.00
2019-03-09T15:01:22.992Z,1.10
2019-03-09T15:03:49.564Z,1.30
2019-03-09T15:06:16.124Z,1.17
2019-03-09T15:08:42.482Z,1.50
2019-03-09T15:11:08.823Z,1.87
2019-03-09T15:13:35.214Z,2.30
2019-03-09T15:16:02.388Z,2.03
2019-03-09T15:18:28.859Z,1.70
2019-03-09T15:20:55.323Z,1.30
2019-03-09T15:23:21.695Z,1.80
2019-03-09T15:25:48.083Z,2.20
2019-03-09T15:28:14.462Z,2.37
2019-03-09T15:30:40.919Z,1.70
2019-03-09T15:33:07.407Z,1.00
2019-03-09T15:35:35.816Z,0.90
2019-03-09T15:38:02.407Z,1.00
2019-03-09T15:40:28.777Z,0.80
2019-03-09T15:42:55.219Z,0.83
2019-03-09T15:45:21.670Z,1.20
2019-03-09T15:47:48.051Z,1.50
2019-03-09T15:50:15.198Z,0.90
2019-03-09T15:52:41.764Z,1.60
2019-03-09T15:55:10.147Z,1.00
2019-03-09T15:57:36.633Z,1.53
2019-03-09T16:00:05.009Z,1.20
2019-03-09T16:02:31.352Z,0.93
2019-03-09T16:04:57.720Z,1.00
2019-03-09T16:07:24.087Z,1.13
2019-03-09T16:09:50.555Z,1.40
2019-03-09T16:12:16.998Z,1.13
2019-03-09T16:14:43.385Z,1.30
2019-03-09T16:17:09.842Z,0.70
2019-03-09T16:19:36.211Z,0.70
2019-03-09T16:22:02.658Z,0.80
2019-03-09T16:24:29.026Z,0.70
2019-03-09T16:26:55.579Z,0.80
2019-03-09T16:29:23.319Z,0.80
2019-03-09T16:31:49.767Z,0.90
2019-03-09T16:34:16.143Z,0.70
2019-03-09T16:36:42.597Z,2.27
2019-03-09T16:39:09.187Z,0.93
2019-03-09T16:41:35.536Z,0.90
2019-03-09T16:44:02.091Z,0.77
2019-03-09T16:46:28.448Z,0.63
2019-03-09T16:48:54.805Z,0.70
2019-03-09T16:51:21.268Z,1.10
2019-03-09T16:53:47.623Z,0.90
2019-03-09T16:56:14.011Z,0.60
2019-03-09T16:58:40.459Z,0.70
2019-03-09T17:01:06.871Z,0.83
2019-03-09T17:03:33.326Z,0.87
2019-03-09T17:05:59.814Z,0.43
2019-03-09T17:08:26.173Z,0.97
2019-03-09T17:10:52.586Z,0.77
2019-03-09T17:13:19.180Z,0.90
2019-03-09T17:15:45.598Z,0.50
2019-03-09T17:18:12.061Z,0.50
2019-03-09T17:20:38.463Z,0.93
2019-03-09T17:23:04.814Z,0.70
2019-03-09T17:25:31.320Z,0.70
2019-03-09T17:27:57.775Z,1.00
2019-03-09T17:30:24.155Z,1.20
2019-03-09T17:32:50.520Z,0.90
2019-03-09T17:35:17.091Z,0.80
2019-03-09T17:37:43.546Z,0.77
2019-03-09T17:40:10.997Z,0.80
2019-03-09T17:42:37.559Z,0.90
2019-03-09T17:45:05.909Z,0.90
2019-03-09T17:47:32.279Z,1.17
2019-03-09T17:49:58.726Z,0.93
2019-03-09T17:52:25.191Z,1.40
2019-03-09T17:54:51.545Z,0.60
2019-03-09T17:57:18.106Z,1.10
2019-03-09T17:59:44.480Z,0.90
2019-03-09T18:02:10.879Z,1.10
2019-03-09T18:04:37.431Z,1.30
2019-03-09T18:07:04.005Z,1.03
2019-03-09T18:09:30.447Z,0.67
2019-03-09T18:11:56.927Z,1.10
2019-03-09T18:14:23.483Z,1.10
2019-03-09T18:16:53.086Z,0.90
2019-03-09T18:19:18.199Z,1.73
2019-03-09T18:21:44.663Z,1.10
2019-03-09T18:24:11.020Z,1.43
2019-03-09T18:26:37.598Z,1.47
2019-03-09T18:29:03.946Z,0.87
2019-03-09T18:31:30.304Z,0.93
2019-03-09T18:33:56.673Z,1.37
2019-03-09T18:36:23.115Z,1.53
2019-03-09T18:38:49.592Z,1.40
2019-03-09T18:41:16.142Z,1.30
2019-03-09T18:43:42.530Z,1.07
2019-03-09T18:46:08.895Z,0.97
2019-03-09T18:48:35.469Z,1.43
2019-03-09T18:51:02.012Z,1.17
2019-03-09T18:53:28.512Z,1.87
2019-03-09T18:55:59.215Z,1.40
2019-03-09T18:58:23.351Z,1.50
2019-03-09T19:00:49.772Z,1.40
2019-03-09T19:03:16.356Z,1.50
2019-03-09T19:05:45.255Z,1.10
2019-03-09T19:08:11.859Z,1.70
2019-03-09T19:10:38.287Z,1.60
2019-03-09T19:13:04.804Z,1.57
2019-03-09T19:15:31.252Z,1.30
2019-03-09T19:17:57.733Z,1.50
2019-03-09T19:20:24.349Z,1.47
2019-03-09T19:22:50.853Z,1.70
2019-03-09T19:25:17.332Z,2.10
2019-03-09T19:27:43.794Z,1.27
2019-03-09T19:30:12.068Z,1.20
2019-03-09T19:32:38.523Z,1.50
2019-03-09T19:35:06.095Z,1.50
2019-03-09T19:37:32.447Z,1.50
2019-03-09T19:39:59.025Z,1.60
2019-03-09T19:42:25.406Z,1.40
2019-03-09T19:44:51.776Z,1.57
2019-03-09T19:47:18.142Z,1.83
2019-03-09T19:49:44.605Z,1.73
2019-03-09T19:52:11.154Z,1.30
2019-03-09T19:54:37.631Z,1.43
2019-03-09T19:57:04.093Z,1.63
2019-03-09T19:59:30.518Z,1.60
2019-03-09T20:01:57.055Z,1.90
2019-03-09T20:04:23.423Z,1.70
2019-03-09T20:06:49.867Z,1.53
2019-03-09T20:09:16.247Z,1.77
2019-03-09T20:11:42.636Z,2.30
2019-03-09T20:14:09.079Z,1.60
2019-03-09T20:16:35.655Z,2.77
2019-03-09T20:19:02.100Z,2.10
2019-03-09T20:21:28.670Z,2.17
2019-03-09T20:23:55.125Z,2.00
2019-03-09T20:26:21.690Z,1.87
2019-03-09T20:28:48.054Z,1.90
2019-03-09T20:31:14.423Z,2.10
2019-03-09T20:33:40.871Z,2.17
2019-03-09T20:36:07.239Z,2.03
2019-03-09T20:38:33.699Z,1.50
2019-03-09T20:41:00.093Z,2.00
2019-03-09T20:43:26.091Z,1.67
2019-03-09T20:45:52.454Z,2.10
2019-03-09T20:48:19.011Z,1.97
2019-03-09T20:50:45.501Z,1.90
2019-03-09T20:53:11.857Z,2.00
2019-03-09T20:55:38.343Z,2.03
2019-03-09T20:58:04.787Z,2.60
2019-03-09T21:00:31.211Z,2.10
2019-03-09T21:02:57.771Z,2.20
2019-03-09T21:05:24.329Z,1.60
2019-03-09T21:07:50.697Z,2.07
2019-03-09T21:10:17.659Z,2.13
2019-03-09T21:12:46.024Z,2.03
2019-03-09T21:15:12.375Z,2.70
2019-03-09T21:17:38.763Z,2.43
2019-03-09T21:20:05.238Z,2.17
2019-03-09T21:22:31.610Z,2.63
2019-03-09T21:24:58.059Z,2.50
2019-03-09T21:27:24.529Z,2.60
2019-03-09T21:29:50.979Z,2.57
2019-03-09T21:32:17.368Z,2.43
2019-03-09T21:34:43.919Z,2.47
2019-03-09T21:37:10.292Z,2.73
2019-03-09T21:39:36.740Z,2.30
2019-03-09T21:42:03.207Z,3.10
2019-03-09T21:44:29.651Z,2.77
2019-03-09T21:46:56.066Z,2.57
2019-03-09T21:49:22.442Z,2.37
2019-03-09T21:51:48.863Z,2.97
2019-03-09T21:54:15.311Z,2.97
2019-03-09T21:56:41.761Z,3.07
2019-03-09T21:59:08.227Z,3.23
2019-03-09T22:01:34.587Z,3.30
2019-03-09T22:04:01.055Z,3.17
2019-03-09T22:06:27.506Z,4.00
2019-03-09T22:08:53.886Z,2.80
2019-03-09T22:11:20.343Z,3.03
2019-03-09T22:13:46.827Z,2.70
2019-03-09T22:16:13.267Z,2.80
2019-03-09T22:18:39.631Z,3.57
2019-03-09T22:21:05.985Z,3.20
2019-03-09T22:23:32.376Z,3.67
2019-03-09T22:25:58.727Z,2.77
2019-03-09T22:28:25.194Z,2.73
2019-03-09T22:30:51.581Z,3.10
2019-03-09T22:33:18.154Z,2.40
2019-03-09T22:35:44.708Z,3.23
2019-03-09T22:38:11.185Z,2.47
2019-03-09T22:40:37.635Z,2.40
2019-03-09T22:43:04.113Z,2.27
2019-03-09T22:45:30.466Z,2.63
2019-03-09T22:47:59.669Z,2.37
2019-03-09T22:50:26.131Z,2.97
2019-03-09T22:52:52.489Z,2.63
2019-03-09T22:55:19.070Z,3.53
2019-03-09T22:57:45.632Z,2.57
2019-03-09T23:00:16.889Z,2.70
2019-03-09T23:02:44.956Z,2.10
2019-03-09T23:05:11.904Z,2.93
2019-03-09T23:07:38.255Z,2.00
2019-03-09T23:10:06.672Z,2.47
2019-03-09T23:12:33.114Z,2.50
2019-03-09T23:14:59.487Z,3.03
2019-03-09T23:17:25.940Z,2.27
2019-03-09T23:19:52.412Z,2.07
2019-03-09T23:22:18.860Z,2.80
2019-03-09T23:24:45.229Z,2.03
2019-03-09T23:27:11.680Z,2.30
2019-03-09T23:29:38.143Z,2.60
2019-03-09T23:32:04.595Z,2.47
2019-03-09T23:34:31.063Z,2.77
2019-03-09T23:36:57.518Z,2.03
2019-03-09T23:39:23.987Z,2.13
2019-03-09T23:41:50.543Z,2.43
2019-03-09T23:44:17.106Z,2.40
2019-03-09T23:46:43.557Z,2.80
2019-03-09T23:49:10.139Z,2.50
2019-03-09T23:51:36.596Z,2.27
2019-03-09T23:54:04.010Z,2.00
2019-03-09T23:56:30.622Z,2.27
2019-03-09T23:58:57.226Z,2.60
